sensor_id;sensor_type;location;lat;lon;timestamp;P1;durP1;ratioP1;P2;durP2;ratioP2
34836;SDS011;21053;50.848;4.652;2022-07-29T00:00:31;2.80;;;1.60;;
34836;SDS011;21053;50.848;4.652;2022-07-29T00:02:57;3.15;;;1.25;;
34836;SDS011;21053;50.848;4.652;2022-07-29T00:05:25;2.05;;;1.10;;
34836;SDS011;21053;50.848;4.652;2022-07-29T00:07:53;3.58;;;1.52;;
34836;SDS011;21053;50.848;4.652;2022-07-29T00:10:19;6.60;;;1.38;;
34836;SDS011;21053;50.848;4.652;2022-07-29T00:12:47;6.28;;;1.00;;
34836;SDS011;21053;50.848;4.652;2022-07-29T00:15:13;6.60;;;1.27;;
34836;SDS011;21053;50.848;4.652;2022-07-29T00:17:41;5.30;;;1.52;;
34836;SDS011;21053;50.848;4.652;2022-07-29T00:20:06;4.75;;;1.40;;
34836;SDS011;21053;50.848;4.652;2022-07-29T00:22:36;6.10;;;1.30;;
34836;SDS011;21053;50.848;4.652;2022-07-29T00:25:03;4.07;;;1.33;;
34836;SDS011;21053;50.848;4.652;2022-07-29T00:27:30;7.00;;;1.67;;
34836;SDS011;21053;50.848;4.652;2022-07-29T00:29:57;4.60;;;1.25;;
34836;SDS011;21053;50.848;4.652;2022-07-29T00:32:24;5.57;;;1.30;;
34836;SDS011;21053;50.848;4.652;2022-07-29T00:34:51;8.80;;;1.33;;
34836;SDS011;21053;50.848;4.652;2022-07-29T00:37:38;4.85;;;1.23;;
34836;SDS011;21053;50.848;4.652;2022-07-29T00:40:06;7.18;;;1.63;;
34836;SDS011;21053;50.848;4.652;2022-07-29T00:42:45;4.15;;;1.40;;
34836;SDS011;21053;50.848;4.652;2022-07-29T00:45:13;7.25;;;1.50;;
34836;SDS011;21053;50.848;4.652;2022-07-29T00:47:48;6.25;;;1.60;;
34836;SDS011;21053;50.848;4.652;2022-07-29T00:50:17;6.50;;;1.90;;
34836;SDS011;21053;50.848;4.652;2022-07-29T00:52:46;3.88;;;1.60;;
34836;SDS011;21053;50.848;4.652;2022-07-29T00:55:14;2.70;;;1.75;;
34836;SDS011;21053;50.848;4.652;2022-07-29T00:57:43;5.85;;;2.00;;
34836;SDS011;21053;50.848;4.652;2022-07-29T01:00:14;12.43;;;1.83;;
34836;SDS011;21053;50.848;4.652;2022-07-29T01:02:45;11.35;;;2.38;;
34836;SDS011;21053;50.848;4.652;2022-07-29T01:05:15;7.70;;;1.77;;
34836;SDS011;21053;50.848;4.652;2022-07-29T01:07:51;6.30;;;1.60;;
34836;SDS011;21053;50.848;4.652;2022-07-29T01:12:49;4.50;;;1.70;;
34836;SDS011;21053;50.848;4.652;2022-07-29T01:15:16;5.90;;;1.70;;
34836;SDS011;21053;50.848;4.652;2022-07-29T01:20:25;4.78;;;1.67;;
34836;SDS011;21053;50.848;4.652;2022-07-29T01:23:12;4.55;;;1.58;;
34836;SDS011;21053;50.848;4.652;2022-07-29T01:37:24;4.00;;;1.73;;
34836;SDS011;21053;50.848;4.652;2022-07-29T01:39:52;3.97;;;1.60;;
34836;SDS011;21053;50.848;4.652;2022-07-29T01:47:54;2.70;;;1.70;;
34836;SDS011;21053;50.848;4.652;2022-07-29T01:50:26;5.38;;;1.67;;
34836;SDS011;21053;50.848;4.652;2022-07-29T01:53:23;6.25;;;2.03;;
34836;SDS011;21053;50.848;4.652;2022-07-29T01:58:26;7.93;;;1.88;;
34836;SDS011;21053;50.848;4.652;2022-07-29T02:00:53;8.23;;;1.58;;
34836;SDS011;21053;50.848;4.652;2022-07-29T02:03:22;4.40;;;1.48;;
34836;SDS011;21053;50.848;4.652;2022-07-29T02:05:51;4.78;;;1.95;;
34836;SDS011;21053;50.848;4.652;2022-07-29T02:08:18;5.82;;;1.88;;
34836;SDS011;21053;50.848;4.652;2022-07-29T02:13:15;8.50;;;2.25;;
34836;SDS011;21053;50.848;4.652;2022-07-29T02:15:46;3.60;;;1.60;;
34836;SDS011;21053;50.848;4.652;2022-07-29T02:18:15;4.65;;;1.73;;
34836;SDS011;21053;50.848;4.652;2022-07-29T02:20:52;10.00;;;1.90;;
34836;SDS011;21053;50.848;4.652;2022-07-29T02:23:23;4.65;;;1.70;;
34836;SDS011;21053;50.848;4.652;2022-07-29T02:25:53;7.20;;;1.67;;
34836;SDS011;21053;50.848;4.652;2022-07-29T02:28:25;3.50;;;1.58;;
34836;SDS011;21053;50.848;4.652;2022-07-29T02:30:55;3.35;;;1.95;;
34836;SDS011;21053;50.848;4.652;2022-07-29T02:33:26;3.90;;;1.73;;
34836;SDS011;21053;50.848;4.652;2022-07-29T02:35:56;10.15;;;2.30;;
34836;SDS011;21053;50.848;4.652;2022-07-29T02:38:25;6.63;;;1.90;;
34836;SDS011;21053;50.848;4.652;2022-07-29T02:43:55;8.32;;;2.15;;
34836;SDS011;21053;50.848;4.652;2022-07-29T02:54:31;7.20;;;1.95;;
34836;SDS011;21053;50.848;4.652;2022-07-29T02:57:00;7.50;;;1.88;;
34836;SDS011;21053;50.848;4.652;2022-07-29T02:59:36;6.57;;;1.90;;
34836;SDS011;21053;50.848;4.652;2022-07-29T03:02:06;9.73;;;2.10;;
34836;SDS011;21053;50.848;4.652;2022-07-29T03:04:34;4.22;;;1.80;;
34836;SDS011;21053;50.848;4.652;2022-07-29T03:07:03;15.63;;;1.98;;
34836;SDS011;21053;50.848;4.652;2022-07-29T03:09:33;5.90;;;2.00;;
34836;SDS011;21053;50.848;4.652;2022-07-29T03:14:29;6.63;;;2.20;;
34836;SDS011;21053;50.848;4.652;2022-07-29T03:16:58;6.53;;;1.85;;
34836;SDS011;21053;50.848;4.652;2022-07-29T03:19:25;7.40;;;1.65;;
34836;SDS011;21053;50.848;4.652;2022-07-29T03:21:51;3.00;;;1.63;;
34836;SDS011;21053;50.848;4.652;2022-07-29T03:24:28;9.30;;;1.67;;
34836;SDS011;21053;50.848;4.652;2022-07-29T03:27:01;7.03;;;2.65;;
34836;SDS011;21053;50.848;4.652;2022-07-29T03:29:28;9.85;;;1.83;;
34836;SDS011;21053;50.848;4.652;2022-07-29T03:31:55;4.35;;;2.00;;
34836;SDS011;21053;50.848;4.652;2022-07-29T03:34:21;6.57;;;1.60;;
34836;SDS011;21053;50.848;4.652;2022-07-29T03:36:48;5.88;;;1.75;;
34836;SDS011;21053;50.848;4.652;2022-07-29T03:41:47;7.40;;;1.90;;
34836;SDS011;21053;50.848;4.652;2022-07-29T03:44:16;6.38;;;2.10;;
34836;SDS011;21053;50.848;4.652;2022-07-29T03:46:45;6.88;;;1.98;;
34836;SDS011;21053;50.848;4.652;2022-07-29T03:49:14;5.53;;;2.10;;
34836;SDS011;21053;50.848;4.652;2022-07-29T03:51:42;19.77;;;2.20;;
34836;SDS011;21053;50.848;4.652;2022-07-29T03:54:08;3.20;;;2.03;;
34836;SDS011;21053;50.848;4.652;2022-07-29T03:56:37;6.20;;;1.60;;
34836;SDS011;21053;50.848;4.652;2022-07-29T03:59:06;6.20;;;1.77;;
34836;SDS011;21053;50.848;4.652;2022-07-29T04:01:35;5.75;;;1.95;;
34836;SDS011;21053;50.848;4.652;2022-07-29T04:06:44;9.32;;;2.00;;
34836;SDS011;21053;50.848;4.652;2022-07-29T04:09:14;6.60;;;2.15;;
34836;SDS011;21053;50.848;4.652;2022-07-29T04:11:40;3.50;;;1.92;;
34836;SDS011;21053;50.848;4.652;2022-07-29T04:14:09;2.80;;;1.73;;
34836;SDS011;21053;50.848;4.652;2022-07-29T04:16:35;2.55;;;1.55;;
34836;SDS011;21053;50.848;4.652;2022-07-29T04:19:01;5.90;;;1.88;;
34836;SDS011;21053;50.848;4.652;2022-07-29T04:21:29;4.22;;;2.00;;
34836;SDS011;21053;50.848;4.652;2022-07-29T04:23:57;3.28;;;1.63;;
34836;SDS011;21053;50.848;4.652;2022-07-29T04:26:25;4.15;;;2.05;;
34836;SDS011;21053;50.848;4.652;2022-07-29T04:28:51;4.50;;;1.70;;
34836;SDS011;21053;50.848;4.652;2022-07-29T04:31:18;8.90;;;2.60;;
34836;SDS011;21053;50.848;4.652;2022-07-29T04:33:44;4.00;;;2.13;;
34836;SDS011;21053;50.848;4.652;2022-07-29T04:36:09;4.47;;;2.10;;
34836;SDS011;21053;50.848;4.652;2022-07-29T04:38:36;4.60;;;2.08;;
34836;SDS011;21053;50.848;4.652;2022-07-29T04:46:05;8.65;;;2.50;;
34836;SDS011;21053;50.848;4.652;2022-07-29T04:48:33;6.75;;;2.28;;
34836;SDS011;21053;50.848;4.652;2022-07-29T04:50:59;4.93;;;1.85;;
34836;SDS011;21053;50.848;4.652;2022-07-29T04:53:28;4.40;;;2.00;;
34836;SDS011;21053;50.848;4.652;2022-07-29T04:55:55;4.70;;;2.08;;
34836;SDS011;21053;50.848;4.652;2022-07-29T04:58:21;4.13;;;2.15;;
34836;SDS011;21053;50.848;4.652;2022-07-29T05:00:50;8.00;;;2.28;;
34836;SDS011;21053;50.848;4.652;2022-07-29T05:03:16;6.68;;;2.05;;
34836;SDS011;21053;50.848;4.652;2022-07-29T05:05:45;4.68;;;2.25;;
34836;SDS011;21053;50.848;4.652;2022-07-29T05:08:12;7.57;;;2.45;;
34836;SDS011;21053;50.848;4.652;2022-07-29T05:10:37;5.20;;;2.50;;
34836;SDS011;21053;50.848;4.652;2022-07-29T05:13:05;6.38;;;2.30;;
34836;SDS011;21053;50.848;4.652;2022-07-29T05:15:34;4.03;;;1.90;;
34836;SDS011;21053;50.848;4.652;2022-07-29T05:18:01;2.72;;;2.05;;
34836;SDS011;21053;50.848;4.652;2022-07-29T05:20:30;4.72;;;2.00;;
34836;SDS011;21053;50.848;4.652;2022-07-29T05:23:03;4.00;;;2.20;;
34836;SDS011;21053;50.848;4.652;2022-07-29T05:25:29;7.70;;;2.47;;
34836;SDS011;21053;50.848;4.652;2022-07-29T05:27:55;4.32;;;2.22;;
34836;SDS011;21053;50.848;4.652;2022-07-29T05:30:22;6.35;;;2.38;;
34836;SDS011;21053;50.848;4.652;2022-07-29T05:32:50;4.78;;;2.17;;
34836;SDS011;21053;50.848;4.652;2022-07-29T05:35:17;9.93;;;2.20;;
34836;SDS011;21053;50.848;4.652;2022-07-29T05:37:44;4.25;;;2.55;;
34836;SDS011;21053;50.848;4.652;2022-07-29T05:40:10;5.18;;;2.35;;
34836;SDS011;21053;50.848;4.652;2022-07-29T05:42:37;8.20;;;2.50;;
34836;SDS011;21053;50.848;4.652;2022-07-29T05:45:03;4.03;;;2.20;;
34836;SDS011;21053;50.848;4.652;2022-07-29T05:47:32;5.47;;;2.70;;
34836;SDS011;21053;50.848;4.652;2022-07-29T05:49:58;3.53;;;2.45;;
34836;SDS011;21053;50.848;4.652;2022-07-29T05:52:26;5.03;;;2.47;;
34836;SDS011;21053;50.848;4.652;2022-07-29T05:54:54;3.65;;;2.42;;
34836;SDS011;21053;50.848;4.652;2022-07-29T05:59:49;6.78;;;3.00;;
34836;SDS011;21053;50.848;4.652;2022-07-29T06:02:21;7.53;;;3.03;;
34836;SDS011;21053;50.848;4.652;2022-07-29T06:04:48;6.30;;;2.58;;
34836;SDS011;21053;50.848;4.652;2022-07-29T06:07:15;5.28;;;2.85;;
34836;SDS011;21053;50.848;4.652;2022-07-29T06:09:41;5.75;;;3.00;;
34836;SDS011;21053;50.848;4.652;2022-07-29T06:12:11;3.50;;;2.90;;
34836;SDS011;21053;50.848;4.652;2022-07-29T06:14:38;7.65;;;2.85;;
34836;SDS011;21053;50.848;4.652;2022-07-29T06:17:05;6.25;;;2.80;;
34836;SDS011;21053;50.848;4.652;2022-07-29T06:19:31;6.15;;;3.00;;
34836;SDS011;21053;50.848;4.652;2022-07-29T06:21:58;5.13;;;2.85;;
34836;SDS011;21053;50.848;4.652;2022-07-29T06:24:24;6.13;;;2.88;;
34836;SDS011;21053;50.848;4.652;2022-07-29T06:26:50;3.80;;;2.55;;
34836;SDS011;21053;50.848;4.652;2022-07-29T06:29:16;9.10;;;3.17;;
34836;SDS011;21053;50.848;4.652;2022-07-29T06:34:14;6.43;;;2.65;;
34836;SDS011;21053;50.848;4.652;2022-07-29T06:36:41;7.57;;;2.88;;
34836;SDS011;21053;50.848;4.652;2022-07-29T06:39:09;4.47;;;2.92;;
34836;SDS011;21053;50.848;4.652;2022-07-29T06:44:05;8.00;;;3.10;;
34836;SDS011;21053;50.848;4.652;2022-07-29T06:46:37;4.88;;;2.55;;
34836;SDS011;21053;50.848;4.652;2022-07-29T06:49:04;10.88;;;3.28;;
34836;SDS011;21053;50.848;4.652;2022-07-29T06:51:31;4.35;;;3.10;;
34836;SDS011;21053;50.848;4.652;2022-07-29T06:53:57;8.15;;;2.65;;
34836;SDS011;21053;50.848;4.652;2022-07-29T06:56:23;7.50;;;3.55;;
34836;SDS011;21053;50.848;4.652;2022-07-29T06:58:51;7.57;;;3.33;;
34836;SDS011;21053;50.848;4.652;2022-07-29T07:01:16;5.07;;;2.92;;
34836;SDS011;21053;50.848;4.652;2022-07-29T07:03:42;4.50;;;2.70;;
34836;SDS011;21053;50.848;4.652;2022-07-29T07:06:08;4.53;;;2.90;;
34836;SDS011;21053;50.848;4.652;2022-07-29T07:08:35;8.48;;;3.00;;
34836;SDS011;21053;50.848;4.652;2022-07-29T07:13:32;7.45;;;3.05;;
34836;SDS011;21053;50.848;4.652;2022-07-29T07:16:01;13.80;;;3.60;;
34836;SDS011;21053;50.848;4.652;2022-07-29T07:18:27;10.20;;;2.78;;
34836;SDS011;21053;50.848;4.652;2022-07-29T07:20:54;10.00;;;2.55;;
34836;SDS011;21053;50.848;4.652;2022-07-29T07:23:23;4.85;;;2.90;;
34836;SDS011;21053;50.848;4.652;2022-07-29T07:25:52;6.43;;;2.90;;
34836;SDS011;21053;50.848;4.652;2022-07-29T07:28:20;7.50;;;3.13;;
34836;SDS011;21053;50.848;4.652;2022-07-29T07:30:45;8.13;;;2.67;;
34836;SDS011;21053;50.848;4.652;2022-07-29T07:33:11;5.80;;;2.70;;
34836;SDS011;21053;50.848;4.652;2022-07-29T07:35:38;6.50;;;2.72;;
34836;SDS011;21053;50.848;4.652;2022-07-29T07:38:04;6.97;;;3.00;;
34836;SDS011;21053;50.848;4.652;2022-07-29T07:40:32;9.15;;;2.75;;
34836;SDS011;21053;50.848;4.652;2022-07-29T07:42:57;11.43;;;3.20;;
34836;SDS011;21053;50.848;4.652;2022-07-29T07:45:23;6.28;;;2.67;;
34836;SDS011;21053;50.848;4.652;2022-07-29T07:47:49;8.68;;;2.92;;
34836;SDS011;21053;50.848;4.652;2022-07-29T07:50:18;6.18;;;2.85;;
34836;SDS011;21053;50.848;4.652;2022-07-29T07:52:50;5.72;;;2.42;;
34836;SDS011;21053;50.848;4.652;2022-07-29T08:00:38;4.43;;;2.35;;
34836;SDS011;21053;50.848;4.652;2022-07-29T08:03:05;4.60;;;2.85;;
34836;SDS011;21053;50.848;4.652;2022-07-29T08:05:34;6.85;;;2.30;;
34836;SDS011;21053;50.848;4.652;2022-07-29T08:08:01;6.93;;;2.38;;
34836;SDS011;21053;50.848;4.652;2022-07-29T08:10:27;7.15;;;2.25;;
34836;SDS011;21053;50.848;4.652;2022-07-29T08:13:14;4.88;;;2.33;;
34836;SDS011;21053;50.848;4.652;2022-07-29T08:15:39;7.05;;;2.67;;
34836;SDS011;21053;50.848;4.652;2022-07-29T08:18:10;6.25;;;2.60;;
34836;SDS011;21053;50.848;4.652;2022-07-29T08:20:37;6.72;;;2.45;;
34836;SDS011;21053;50.848;4.652;2022-07-29T08:23:05;5.68;;;2.70;;
34836;SDS011;21053;50.848;4.652;2022-07-29T08:25:37;6.05;;;2.30;;
34836;SDS011;21053;50.848;4.652;2022-07-29T08:28:04;5.03;;;2.22;;
34836;SDS011;21053;50.848;4.652;2022-07-29T08:30:34;5.88;;;2.88;;
34836;SDS011;21053;50.848;4.652;2022-07-29T08:35:30;7.75;;;2.35;;
34836;SDS011;21053;50.848;4.652;2022-07-29T08:37:56;8.25;;;2.88;;
34836;SDS011;21053;50.848;4.652;2022-07-29T08:40:22;5.22;;;2.67;;
34836;SDS011;21053;50.848;4.652;2022-07-29T08:42:52;11.35;;;2.67;;
34836;SDS011;21053;50.848;4.652;2022-07-29T08:45:17;4.05;;;2.35;;
34836;SDS011;21053;50.848;4.652;2022-07-29T08:47:45;3.72;;;1.92;;
34836;SDS011;21053;50.848;4.652;2022-07-29T08:50:11;5.10;;;1.92;;
34836;SDS011;21053;50.848;4.652;2022-07-29T08:52:39;5.28;;;2.10;;
34836;SDS011;21053;50.848;4.652;2022-07-29T08:57:36;2.92;;;1.73;;
34836;SDS011;21053;50.848;4.652;2022-07-29T09:00:06;4.20;;;1.88;;
34836;SDS011;21053;50.848;4.652;2022-07-29T09:02:35;4.72;;;2.15;;
34836;SDS011;21053;50.848;4.652;2022-07-29T09:05:04;2.85;;;1.90;;
34836;SDS011;21053;50.848;4.652;2022-07-29T09:07:32;3.60;;;1.60;;
34836;SDS011;21053;50.848;4.652;2022-07-29T09:10:01;5.70;;;1.83;;
34836;SDS011;21053;50.848;4.652;2022-07-29T09:12:30;3.25;;;1.50;;
34836;SDS011;21053;50.848;4.652;2022-07-29T09:14:57;6.28;;;2.13;;
34836;SDS011;21053;50.848;4.652;2022-07-29T09:20:09;4.65;;;1.48;;
34836;SDS011;21053;50.848;4.652;2022-07-29T09:24:51;5.65;;;1.55;;
34836;SDS011;21053;50.848;4.652;2022-07-29T09:29:43;3.28;;;1.50;;
34836;SDS011;21053;50.848;4.652;2022-07-29T09:32:09;8.95;;;2.22;;
34836;SDS011;21053;50.848;4.652;2022-07-29T09:34:35;3.85;;;1.45;;
34836;SDS011;21053;50.848;4.652;2022-07-29T09:37:03;4.97;;;1.90;;
34836;SDS011;21053;50.848;4.652;2022-07-29T09:42:11;5.97;;;1.83;;
34836;SDS011;21053;50.848;4.652;2022-07-29T09:44:56;3.35;;;1.55;;
34836;SDS011;21053;50.848;4.652;2022-07-29T09:47:22;4.78;;;1.70;;
34836;SDS011;21053;50.848;4.652;2022-07-29T09:50:15;2.30;;;1.13;;
34836;SDS011;21053;50.848;4.652;2022-07-29T09:52:48;9.35;;;1.48;;
34836;SDS011;21053;50.848;4.652;2022-07-29T09:55:15;4.18;;;1.55;;
34836;SDS011;21053;50.848;4.652;2022-07-29T09:57:44;3.20;;;1.60;;
34836;SDS011;21053;50.848;4.652;2022-07-29T10:02:40;2.38;;;1.40;;
34836;SDS011;21053;50.848;4.652;2022-07-29T10:05:21;6.25;;;1.42;;
34836;SDS011;21053;50.848;4.652;2022-07-29T10:07:52;4.53;;;1.17;;
34836;SDS011;21053;50.848;4.652;2022-07-29T10:10:28;5.00;;;1.65;;
34836;SDS011;21053;50.848;4.652;2022-07-29T10:12:57;2.47;;;1.65;;
34836;SDS011;21053;50.848;4.652;2022-07-29T10:17:18;4.47;;;1.48;;
34836;SDS011;21053;50.848;4.652;2022-07-29T10:19:44;5.40;;;1.58;;
34836;SDS011;21053;50.848;4.652;2022-07-29T10:22:11;2.97;;;1.60;;
34836;SDS011;21053;50.848;4.652;2022-07-29T10:24:38;5.68;;;1.40;;
34836;SDS011;21053;50.848;4.652;2022-07-29T10:27:06;2.53;;;1.15;;
34836;SDS011;21053;50.848;4.652;2022-07-29T10:29:33;3.80;;;1.50;;
34836;SDS011;21053;50.848;4.652;2022-07-29T10:32:10;5.97;;;1.58;;
34836;SDS011;21053;50.848;4.652;2022-07-29T10:37:45;3.03;;;1.52;;
34836;SDS011;21053;50.848;4.652;2022-07-29T10:43:32;4.35;;;1.63;;
34836;SDS011;21053;50.848;4.652;2022-07-29T10:46:07;3.75;;;1.42;;
34836;SDS011;21053;50.848;4.652;2022-07-29T10:48:34;2.75;;;1.45;;
34836;SDS011;21053;50.848;4.652;2022-07-29T10:51:03;3.60;;;1.40;;
34836;SDS011;21053;50.848;4.652;2022-07-29T10:53:47;4.78;;;1.48;;
34836;SDS011;21053;50.848;4.652;2022-07-29T10:56:32;7.30;;;1.90;;
34836;SDS011;21053;50.848;4.652;2022-07-29T11:01:46;3.65;;;1.20;;
34836;SDS011;21053;50.848;4.652;2022-07-29T11:04:14;3.88;;;1.30;;
34836;SDS011;21053;50.848;4.652;2022-07-29T11:09:33;4.28;;;1.30;;
34836;SDS011;21053;50.848;4.652;2022-07-29T11:12:01;4.95;;;1.50;;
34836;SDS011;21053;50.848;4.652;2022-07-29T11:17:18;5.05;;;1.45;;
34836;SDS011;21053;50.848;4.652;2022-07-29T11:19:44;3.10;;;1.60;;
34836;SDS011;21053;50.848;4.652;2022-07-29T11:22:11;4.53;;;1.48;;
34836;SDS011;21053;50.848;4.652;2022-07-29T11:27:42;4.63;;;1.43;;
34836;SDS011;21053;50.848;4.652;2022-07-29T11:31:33;3.55;;;1.38;;
34836;SDS011;21053;50.848;4.652;2022-07-29T11:39:35;2.95;;;1.42;;
34836;SDS011;21053;50.848;4.652;2022-07-29T11:47:46;1.92;;;1.10;;
34836;SDS011;21053;50.848;4.652;2022-07-29T11:50:15;2.30;;;1.30;;
34836;SDS011;21053;50.848;4.652;2022-07-29T11:52:58;3.97;;;1.55;;
34836;SDS011;21053;50.848;4.652;2022-07-29T11:55:24;2.47;;;1.20;;
34836;SDS011;21053;50.848;4.652;2022-07-29T11:57:54;3.40;;;1.45;;
34836;SDS011;21053;50.848;4.652;2022-07-29T12:00:23;3.38;;;1.50;;
34836;SDS011;21053;50.848;4.652;2022-07-29T12:02:54;6.47;;;1.25;;
34836;SDS011;21053;50.848;4.652;2022-07-29T12:05:29;4.88;;;1.40;;
34836;SDS011;21053;50.848;4.652;2022-07-29T12:08:12;5.43;;;1.63;;
34836;SDS011;21053;50.848;4.652;2022-07-29T12:10:40;2.45;;;1.30;;
34836;SDS011;21053;50.848;4.652;2022-07-29T12:13:08;1.90;;;1.40;;
34836;SDS011;21053;50.848;4.652;2022-07-29T12:15:36;4.28;;;1.40;;
34836;SDS011;21053;50.848;4.652;2022-07-29T12:18:15;3.17;;;1.30;;
34836;SDS011;21053;50.848;4.652;2022-07-29T12:20:43;4.75;;;1.52;;
34836;SDS011;21053;50.848;4.652;2022-07-29T12:23:11;7.07;;;1.42;;
34836;SDS011;21053;50.848;4.652;2022-07-29T12:25:38;3.55;;;1.40;;
34836;SDS011;21053;50.848;4.652;2022-07-29T12:28:06;5.32;;;1.80;;
34836;SDS011;21053;50.848;4.652;2022-07-29T12:30:46;4.18;;;1.42;;
34836;SDS011;21053;50.848;4.652;2022-07-29T12:33:18;8.85;;;1.65;;
34836;SDS011;21053;50.848;4.652;2022-07-29T12:35:56;2.13;;;1.50;;
34836;SDS011;21053;50.848;4.652;2022-07-29T12:38:25;6.32;;;1.50;;
34836;SDS011;21053;50.848;4.652;2022-07-29T12:40:53;3.20;;;1.38;;
34836;SDS011;21053;50.848;4.652;2022-07-29T12:43:20;4.85;;;1.73;;
34836;SDS011;21053;50.848;4.652;2022-07-29T12:45:49;4.38;;;1.58;;
34836;SDS011;21053;50.848;4.652;2022-07-29T12:48:35;4.18;;;1.40;;
34836;SDS011;21053;50.848;4.652;2022-07-29T12:51:03;5.10;;;1.75;;
34836;SDS011;21053;50.848;4.652;2022-07-29T12:56:02;3.00;;;1.40;;
34836;SDS011;21053;50.848;4.652;2022-07-29T12:58:37;5.47;;;1.55;;
34836;SDS011;21053;50.848;4.652;2022-07-29T13:01:07;5.07;;;1.33;;
34836;SDS011;21053;50.848;4.652;2022-07-29T13:03:49;5.70;;;1.38;;
34836;SDS011;21053;50.848;4.652;2022-07-29T13:11:38;4.63;;;1.40;;
34836;SDS011;21053;50.848;4.652;2022-07-29T13:14:06;4.57;;;1.60;;
34836;SDS011;21053;50.848;4.652;2022-07-29T13:16:35;6.03;;;1.33;;
34836;SDS011;21053;50.848;4.652;2022-07-29T13:19:03;23.65;;;2.78;;
34836;SDS011;21053;50.848;4.652;2022-07-29T13:21:39;5.85;;;1.45;;
34836;SDS011;21053;50.848;4.652;2022-07-29T13:24:05;4.65;;;1.60;;
34836;SDS011;21053;50.848;4.652;2022-07-29T13:26:34;2.65;;;1.42;;
34836;SDS011;21053;50.848;4.652;2022-07-29T13:29:03;4.20;;;1.75;;
34836;SDS011;21053;50.848;4.652;2022-07-29T13:31:31;4.05;;;1.75;;
34836;SDS011;21053;50.848;4.652;2022-07-29T13:33:59;3.97;;;1.63;;
34836;SDS011;21053;50.848;4.652;2022-07-29T13:36:25;4.18;;;1.60;;
34836;SDS011;21053;50.848;4.652;2022-07-29T13:38:54;4.00;;;1.40;;
34836;SDS011;21053;50.848;4.652;2022-07-29T13:41:22;2.88;;;1.63;;
34836;SDS011;21053;50.848;4.652;2022-07-29T13:43:49;2.70;;;1.38;;
34836;SDS011;21053;50.848;4.652;2022-07-29T13:46:14;3.67;;;1.52;;
34836;SDS011;21053;50.848;4.652;2022-07-29T13:48:40;5.45;;;1.55;;
34836;SDS011;21053;50.848;4.652;2022-07-29T13:51:07;8.70;;;1.88;;
34836;SDS011;21053;50.848;4.652;2022-07-29T13:53:35;4.15;;;1.75;;
34836;SDS011;21053;50.848;4.652;2022-07-29T13:56:01;6.63;;;1.80;;
34836;SDS011;21053;50.848;4.652;2022-07-29T13:58:27;4.85;;;1.65;;
34836;SDS011;21053;50.848;4.652;2022-07-29T14:00:53;7.32;;;1.58;;
34836;SDS011;21053;50.848;4.652;2022-07-29T14:03:19;8.82;;;2.03;;
34836;SDS011;21053;50.848;4.652;2022-07-29T14:05:45;3.38;;;2.00;;
34836;SDS011;21053;50.848;4.652;2022-07-29T14:08:12;4.63;;;2.08;;
34836;SDS011;21053;50.848;4.652;2022-07-29T14:10:38;6.80;;;1.83;;
34836;SDS011;21053;50.848;4.652;2022-07-29T14:15:34;5.22;;;2.00;;
34836;SDS011;21053;50.848;4.652;2022-07-29T14:18:03;4.35;;;2.00;;
34836;SDS011;21053;50.848;4.652;2022-07-29T14:20:30;3.47;;;1.75;;
34836;SDS011;21053;50.848;4.652;2022-07-29T14:22:58;4.68;;;2.00;;
34836;SDS011;21053;50.848;4.652;2022-07-29T14:25:25;5.55;;;1.80;;
34836;SDS011;21053;50.848;4.652;2022-07-29T14:27:53;7.32;;;1.92;;
34836;SDS011;21053;50.848;4.652;2022-07-29T14:30:19;18.08;;;2.00;;
34836;SDS011;21053;50.848;4.652;2022-07-29T14:32:46;5.65;;;2.13;;
34836;SDS011;21053;50.848;4.652;2022-07-29T14:35:14;7.40;;;2.45;;
34836;SDS011;21053;50.848;4.652;2022-07-29T14:37:40;4.93;;;2.40;;
34836;SDS011;21053;50.848;4.652;2022-07-29T14:40:08;4.95;;;2.15;;
34836;SDS011;21053;50.848;4.652;2022-07-29T14:42:36;5.63;;;2.08;;
34836;SDS011;21053;50.848;4.652;2022-07-29T14:45:04;5.03;;;1.83;;
34836;SDS011;21053;50.848;4.652;2022-07-29T14:47:31;2.72;;;1.65;;
34836;SDS011;21053;50.848;4.652;2022-07-29T14:49:58;5.57;;;2.60;;
34836;SDS011;21053;50.848;4.652;2022-07-29T14:52:25;3.20;;;1.92;;
34836;SDS011;21053;50.848;4.652;2022-07-29T14:54:53;8.98;;;1.52;;
34836;SDS011;21053;50.848;4.652;2022-07-29T14:57:19;6.03;;;2.13;;
34836;SDS011;21053;50.848;4.652;2022-07-29T14:59:46;5.70;;;2.40;;
34836;SDS011;21053;50.848;4.652;2022-07-29T15:02:12;12.02;;;2.30;;
34836;SDS011;21053;50.848;4.652;2022-07-29T15:04:37;4.75;;;2.00;;
34836;SDS011;21053;50.848;4.652;2022-07-29T15:07:03;6.38;;;1.85;;
34836;SDS011;21053;50.848;4.652;2022-07-29T15:09:29;11.48;;;2.03;;
34836;SDS011;21053;50.848;4.652;2022-07-29T15:11:56;5.03;;;1.80;;
34836;SDS011;21053;50.848;4.652;2022-07-29T15:14:23;2.30;;;1.55;;
34836;SDS011;21053;50.848;4.652;2022-07-29T15:16:48;4.10;;;1.50;;
34836;SDS011;21053;50.848;4.652;2022-07-29T15:19:15;7.57;;;1.70;;
34836;SDS011;21053;50.848;4.652;2022-07-29T15:21:41;4.85;;;2.03;;
34836;SDS011;21053;50.848;4.652;2022-07-29T15:24:08;4.18;;;1.63;;
34836;SDS011;21053;50.848;4.652;2022-07-29T15:26:35;4.43;;;1.52;;
34836;SDS011;21053;50.848;4.652;2022-07-29T15:29:03;2.60;;;1.50;;
34836;SDS011;21053;50.848;4.652;2022-07-29T15:31:30;2.45;;;1.30;;
34836;SDS011;21053;50.848;4.652;2022-07-29T15:33:55;4.28;;;1.50;;
34836;SDS011;21053;50.848;4.652;2022-07-29T15:36:22;6.28;;;1.67;;
34836;SDS011;21053;50.848;4.652;2022-07-29T15:38:51;4.60;;;1.48;;
34836;SDS011;21053;50.848;4.652;2022-07-29T15:41:21;3.10;;;1.50;;
34836;SDS011;21053;50.848;4.652;2022-07-29T15:43:48;2.85;;;1.38;;
34836;SDS011;21053;50.848;4.652;2022-07-29T15:46:17;7.88;;;1.80;;
34836;SDS011;21053;50.848;4.652;2022-07-29T15:49:05;2.30;;;1.23;;
34836;SDS011;21053;50.848;4.652;2022-07-29T15:51:33;1.88;;;1.20;;
34836;SDS011;21053;50.848;4.652;2022-07-29T15:54:03;3.53;;;1.65;;
34836;SDS011;21053;50.848;4.652;2022-07-29T15:56:30;1.67;;;1.17;;
34836;SDS011;21053;50.848;4.652;2022-07-29T15:58:58;4.88;;;1.50;;
34836;SDS011;21053;50.848;4.652;2022-07-29T16:01:25;5.10;;;1.67;;
34836;SDS011;21053;50.848;4.652;2022-07-29T16:03:51;5.72;;;1.02;;
34836;SDS011;21053;50.848;4.652;2022-07-29T16:06:17;1.92;;;1.30;;
34836;SDS011;21053;50.848;4.652;2022-07-29T16:08:43;6.18;;;1.52;;
34836;SDS011;21053;50.848;4.652;2022-07-29T16:11:10;2.55;;;1.40;;
34836;SDS011;21053;50.848;4.652;2022-07-29T16:13:36;3.50;;;1.33;;
34836;SDS011;21053;50.848;4.652;2022-07-29T16:16:03;5.65;;;1.48;;
34836;SDS011;21053;50.848;4.652;2022-07-29T16:18:30;10.93;;;1.42;;
34836;SDS011;21053;50.848;4.652;2022-07-29T16:20:56;4.85;;;1.52;;
34836;SDS011;21053;50.848;4.652;2022-07-29T16:23:22;10.93;;;1.50;;
34836;SDS011;21053;50.848;4.652;2022-07-29T16:25:48;5.68;;;1.73;;
34836;SDS011;21053;50.848;4.652;2022-07-29T16:28:15;3.30;;;1.40;;
34836;SDS011;21053;50.848;4.652;2022-07-29T16:30:41;2.58;;;1.35;;
34836;SDS011;21053;50.848;4.652;2022-07-29T16:33:06;2.60;;;1.40;;
34836;SDS011;21053;50.848;4.652;2022-07-29T16:35:32;9.68;;;1.83;;
34836;SDS011;21053;50.848;4.652;2022-07-29T16:38:00;2.88;;;1.52;;
34836;SDS011;21053;50.848;4.652;2022-07-29T16:40:28;3.03;;;1.30;;
34836;SDS011;21053;50.848;4.652;2022-07-29T16:45:25;3.90;;;1.60;;
34836;SDS011;21053;50.848;4.652;2022-07-29T16:47:53;10.68;;;1.92;;
34836;SDS011;21053;50.848;4.652;2022-07-29T16:50:20;4.38;;;1.35;;
34836;SDS011;21053;50.848;4.652;2022-07-29T16:52:46;7.88;;;1.50;;
34836;SDS011;21053;50.848;4.652;2022-07-29T16:55:11;3.05;;;1.35;;
34836;SDS011;21053;50.848;4.652;2022-07-29T16:57:38;1.77;;;1.27;;
34836;SDS011;21053;50.848;4.652;2022-07-29T17:00:06;4.82;;;1.70;;
34836;SDS011;21053;50.848;4.652;2022-07-29T17:02:32;4.90;;;1.52;;
34836;SDS011;21053;50.848;4.652;2022-07-29T17:07:28;4.00;;;1.60;;